createdAt,value
2022-10-28T00:00:56.882Z,1023.41
2022-10-28T00:01:57.592Z,1023.40
2022-10-28T00:02:58.335Z,1023.39
2022-10-28T00:03:58.993Z,1023.39
2022-10-28T00:04:59.548Z,1023.39
2022-10-28T00:06:00.104Z,1023.40
2022-10-28T00:07:00.657Z,1023.40
2022-10-28T00:08:01.237Z,1023.38
2022-10-28T00:09:01.891Z,1023.38
2022-10-28T00:10:02.438Z,1023.39
2022-10-28T00:11:02.989Z,1023.38
2022-10-28T00:12:03.541Z,1023.38
2022-10-28T00:13:04.087Z,1023.35
2022-10-28T00:14:04.669Z,1023.35
2022-10-28T00:15:05.223Z,1023.34
2022-10-28T00:16:05.780Z,1023.34
2022-10-28T00:17:06.342Z,1023.35
2022-10-28T00:18:06.895Z,1023.35
2022-10-28T00:19:07.555Z,1023.35
2022-10-28T00:20:08.112Z,1023.34
2022-10-28T00:21:08.679Z,1023.34
2022-10-28T00:22:09.234Z,1023.34
2022-10-28T00:23:09.809Z,1023.33
2022-10-28T00:24:10.481Z,1023.33
2022-10-28T00:25:11.036Z,1023.33
2022-10-28T00:26:11.592Z,1023.32
2022-10-28T00:27:12.147Z,1023.32
2022-10-28T00:28:12.693Z,1023.32
2022-10-28T00:29:13.351Z,1023.31
2022-10-28T00:30:13.904Z,1023.31
2022-10-28T00:31:14.488Z,1023.29
2022-10-28T00:32:15.058Z,1023.31
2022-10-28T00:33:15.612Z,1023.31
2022-10-28T00:34:16.682Z,1023.30
2022-10-28T00:35:16.731Z,1023.28
2022-10-28T00:36:17.299Z,1023.27
2022-10-28T00:37:17.851Z,1023.26
2022-10-28T00:38:18.426Z,1023.26
2022-10-28T00:39:19.006Z,1023.26
2022-10-28T00:40:19.560Z,1023.26
2022-10-28T00:41:20.119Z,1023.26
2022-10-28T00:42:20.671Z,1023.25
2022-10-28T00:43:21.284Z,1023.25
2022-10-28T00:44:21.882Z,1023.24
2022-10-28T00:45:22.434Z,1023.24
2022-10-28T00:46:22.986Z,1023.24
2022-10-28T00:47:23.556Z,1023.23
2022-10-28T00:48:24.110Z,1023.23
2022-10-28T00:49:24.720Z,1023.23
2022-10-28T00:50:25.297Z,1023.24
2022-10-28T00:51:25.848Z,1023.23
2022-10-28T00:52:26.392Z,1023.23
2022-10-28T00:53:26.981Z,1023.23
2022-10-28T00:54:27.676Z,1023.21
2022-10-28T00:55:28.233Z,1023.20
2022-10-28T00:56:28.785Z,1023.18
2022-10-28T00:57:29.344Z,1023.18
2022-10-28T00:58:29.896Z,1023.19
2022-10-28T00:59:30.546Z,1023.18
2022-10-28T01:00:31.098Z,1023.17
2022-10-28T01:01:31.791Z,1023.18
2022-10-28T01:02:32.511Z,1023.18
2022-10-28T01:03:33.102Z,1023.17
2022-10-28T01:04:33.680Z,1023.17
2022-10-28T01:05:34.247Z,1023.16
2022-10-28T01:06:34.803Z,1023.16
2022-10-28T01:07:35.356Z,1023.15
2022-10-28T01:08:35.929Z,1023.15
2022-10-28T01:09:36.562Z,1023.14
2022-10-28T01:10:37.114Z,1023.14
2022-10-28T01:11:37.664Z,1023.13
2022-10-28T01:12:38.209Z,1023.13
2022-10-28T01:13:38.759Z,1023.14
2022-10-28T01:14:39.343Z,1023.14
2022-10-28T01:15:39.890Z,1023.14
2022-10-28T01:16:40.445Z,1023.17
2022-10-28T01:17:40.993Z,1023.17
2022-10-28T01:18:41.540Z,1023.13
2022-10-28T01:19:42.125Z,1023.13
2022-10-28T01:20:44.259Z,1023.15
2022-10-28T01:21:43.426Z,1023.15
2022-10-28T01:22:43.984Z,1023.14
2022-10-28T01:23:44.557Z,1023.15
2022-10-28T01:24:45.193Z,1023.17
2022-10-28T01:25:45.742Z,1023.17
2022-10-28T01:26:46.298Z,1023.15
2022-10-28T01:27:46.843Z,1023.15
2022-10-28T01:28:47.423Z,1023.14
2022-10-28T01:29:48.094Z,1023.14
2022-10-28T01:30:48.641Z,1023.12
2022-10-28T01:31:49.193Z,1023.11
2022-10-28T01:32:49.742Z,1023.10
2022-10-28T01:33:50.295Z,1023.12
2022-10-28T01:34:50.944Z,1023.14
2022-10-28T01:35:51.492Z,1023.15
2022-10-28T01:36:52.057Z,1023.14
2022-10-28T01:37:52.908Z,1023.12
2022-10-28T01:38:53.174Z,1023.12
2022-10-28T01:39:53.878Z,1023.12
2022-10-28T01:40:54.428Z,1023.13
2022-10-28T01:41:54.975Z,1023.13
2022-10-28T01:42:55.538Z,1023.15
2022-10-28T01:43:56.104Z,1023.15
2022-10-28T01:44:56.682Z,1023.13
2022-10-28T01:45:57.230Z,1023.14
2022-10-28T01:46:57.777Z,1023.14
2022-10-28T01:47:58.330Z,1023.14
2022-10-28T01:48:58.883Z,1023.13
2022-10-28T01:49:59.516Z,1023.13
2022-10-28T01:51:00.063Z,1023.14
2022-10-28T01:52:00.631Z,1023.12
2022-10-28T01:53:01.183Z,1023.11
2022-10-28T01:54:01.771Z,1023.10
2022-10-28T01:55:02.422Z,1023.09
2022-10-28T01:56:02.981Z,1023.09
2022-10-28T01:57:03.546Z,1023.06
2022-10-28T01:58:04.108Z,1023.07
2022-10-28T01:59:04.656Z,1023.07
2022-10-28T02:00:05.339Z,1023.06
2022-10-28T02:01:06.112Z,1023.06
2022-10-28T02:02:06.718Z,1023.04
2022-10-28T02:03:07.275Z,1023.04
2022-10-28T02:04:07.849Z,1023.05
2022-10-28T02:05:08.431Z,1023.06
2022-10-28T02:06:08.989Z,1023.08
2022-10-28T02:07:09.562Z,1023.07
2022-10-28T02:08:10.115Z,1023.07
2022-10-28T02:09:10.685Z,1023.06
2022-10-28T02:10:11.398Z,1023.05
2022-10-28T02:11:11.953Z,1023.05
2022-10-28T02:12:12.504Z,1023.05
2022-10-28T02:13:13.050Z,1023.06
2022-10-28T02:14:13.606Z,1023.04
2022-10-28T02:15:14.196Z,1023.02
2022-10-28T02:16:14.758Z,1023.02
2022-10-28T02:17:15.302Z,1023.04
2022-10-28T02:18:15.863Z,1023.03
2022-10-28T02:19:16.416Z,1023.03
2022-10-28T02:20:17.005Z,1023.03
2022-10-28T02:21:17.551Z,1023.02
2022-10-28T02:22:18.101Z,1023.02
2022-10-28T02:23:18.654Z,1023.03
2022-10-28T02:24:19.226Z,1023.05
2022-10-28T02:25:19.891Z,1023.03
2022-10-28T02:26:20.434Z,1023.06
2022-10-28T02:27:20.981Z,1023.04
2022-10-28T02:28:21.541Z,1023.05
2022-10-28T02:29:22.095Z,1023.04
2022-10-28T02:30:23.004Z,1023.05
2022-10-28T02:31:23.556Z,1023.05
2022-10-28T02:32:24.109Z,1023.05
2022-10-28T02:33:24.664Z,1023.05
2022-10-28T02:34:25.228Z,1023.02
2022-10-28T02:35:25.810Z,1023.05
2022-10-28T02:36:26.367Z,1023.04
2022-10-28T02:37:26.923Z,1023.01
2022-10-28T02:38:27.475Z,1023.01
2022-10-28T02:39:28.047Z,1023.02
2022-10-28T02:40:28.715Z,1023.02
2022-10-28T02:41:29.269Z,1023.04
2022-10-28T02:42:29.824Z,1023.02
2022-10-28T02:43:30.378Z,1023.01
2022-10-28T02:44:30.965Z,1023.03
2022-10-28T02:45:31.567Z,1023.02
2022-10-28T02:46:32.135Z,1023.00
2022-10-28T02:47:32.687Z,1023.00
2022-10-28T02:48:33.243Z,1023.00
2022-10-28T02:49:33.789Z,1023.00
2022-10-28T02:50:34.378Z,1023.00
2022-10-28T02:51:34.935Z,1023.01
2022-10-28T02:52:35.486Z,1022.99
2022-10-28T02:53:36.040Z,1023.00
2022-10-28T02:54:36.611Z,1023.02
2022-10-28T02:55:37.244Z,1023.02
2022-10-28T02:56:37.796Z,1023.02
2022-10-28T02:57:38.351Z,1023.00
2022-10-28T02:58:38.907Z,1023.01
2022-10-28T02:59:39.461Z,1023.00
2022-10-28T03:00:40.436Z,1023.02
2022-10-28T03:01:41.159Z,1023.02
2022-10-28T03:02:41.826Z,1023.01
2022-10-28T03:03:42.372Z,1023.02
2022-10-28T03:04:42.922Z,1023.02
2022-10-28T03:05:43.505Z,1023.01
2022-10-28T03:06:44.073Z,1023.03
2022-10-28T03:07:44.619Z,1023.04
2022-10-28T03:08:45.165Z,1023.08
2022-10-28T03:09:45.733Z,1023.06
2022-10-28T03:10:46.372Z,1023.04
2022-10-28T03:11:46.937Z,1023.06
2022-10-28T03:12:47.488Z,1023.04
2022-10-28T03:13:48.037Z,1023.03
2022-10-28T03:14:48.618Z,1023.05
2022-10-28T03:15:49.277Z,1023.03
2022-10-28T03:16:49.827Z,1023.05
2022-10-28T03:17:50.726Z,1023.04
2022-10-28T03:18:50.968Z,1023.04
2022-10-28T03:19:51.515Z,1023.04
2022-10-28T03:20:55.405Z,1023.06
2022-10-28T03:21:53.001Z,1023.05
2022-10-28T03:22:53.836Z,1023.04
2022-10-28T03:23:54.096Z,1023.05
2022-10-28T03:24:54.711Z,1023.05
2022-10-28T03:25:55.370Z,1023.04
2022-10-28T03:26:55.927Z,1023.04
2022-10-28T03:27:56.481Z,1023.05
2022-10-28T03:28:57.033Z,1023.03
2022-10-28T03:29:57.591Z,1023.06
2022-10-28T03:30:58.694Z,1023.04
2022-10-28T03:31:58.749Z,1023.02
2022-10-28T03:32:59.300Z,1023.05
2022-10-28T03:33:59.866Z,1023.03
2022-10-28T03:35:00.417Z,1023.03
2022-10-28T03:36:01.031Z,1023.02
2022-10-28T03:37:01.582Z,1023.02
2022-10-28T03:38:02.135Z,1023.03
2022-10-28T03:39:02.679Z,1022.99
2022-10-28T03:40:03.257Z,1023.02
2022-10-28T03:41:03.942Z,1023.03
2022-10-28T03:42:04.504Z,1023.04
2022-10-28T03:43:05.059Z,1023.04
2022-10-28T03:44:05.617Z,1023.04
2022-10-28T03:45:06.170Z,1023.04
2022-10-28T03:46:06.749Z,1023.04
2022-10-28T03:47:07.300Z,1023.02
2022-10-28T03:48:07.851Z,1023.04
2022-10-28T03:49:08.398Z,1023.03
2022-10-28T03:50:08.947Z,1023.07
2022-10-28T03:51:09.525Z,1023.07
2022-10-28T03:52:10.080Z,1023.11
2022-10-28T03:53:10.632Z,1023.05
2022-10-28T03:54:11.192Z,1023.03
2022-10-28T03:55:11.775Z,1023.03
2022-10-28T03:56:12.376Z,1023.03
2022-10-28T03:57:12.931Z,1023.03
2022-10-28T03:58:13.478Z,1023.04
2022-10-28T03:59:16.387Z,1023.00
2022-10-28T04:00:14.958Z,1023.04
2022-10-28T04:01:15.740Z,1023.02
2022-10-28T04:02:16.599Z,1023.03
2022-10-28T04:03:17.273Z,1023.02
2022-10-28T04:04:17.843Z,1023.03
2022-10-28T04:05:18.395Z,1023.01
2022-10-28T04:06:19.033Z,1023.01
2022-10-28T04:07:19.584Z,1023.02
2022-10-28T04:08:20.135Z,1023.02
2022-10-28T04:09:20.682Z,1022.94
2022-10-28T04:10:21.259Z,1022.97
2022-10-28T04:11:21.892Z,1022.97
2022-10-28T04:12:22.445Z,1023.00
2022-10-28T04:13:23.003Z,1023.02
2022-10-28T04:14:23.549Z,1022.99
2022-10-28T04:15:24.065Z,1022.99
2022-10-28T04:16:24.653Z,1022.99
2022-10-28T04:17:25.221Z,1022.98
2022-10-28T04:18:25.769Z,1022.99
2022-10-28T04:19:26.324Z,1022.96
2022-10-28T04:20:26.879Z,1022.96
2022-10-28T04:21:27.467Z,1022.95
2022-10-28T04:22:28.021Z,1022.95
2022-10-28T04:23:28.521Z,1022.95
2022-10-28T04:24:29.015Z,1022.95
2022-10-28T04:25:29.537Z,1022.96
2022-10-28T04:26:30.168Z,1022.95
2022-10-28T04:27:30.668Z,1022.96
2022-10-28T04:28:31.159Z,1022.96
2022-10-28T04:29:31.661Z,1022.96
2022-10-28T04:30:32.156Z,1022.99
2022-10-28T04:31:33.233Z,1022.99
2022-10-28T04:32:33.767Z,1022.97
2022-10-28T04:33:34.273Z,1022.97
2022-10-28T04:34:34.780Z,1022.96
2022-10-28T04:35:35.273Z,1022.97
2022-10-28T04:36:35.801Z,1022.98
2022-10-28T04:37:36.299Z,1022.97
2022-10-28T04:38:36.792Z,1022.96
2022-10-28T04:39:37.286Z,1022.96
2022-10-28T04:40:37.797Z,1022.95
2022-10-28T04:41:38.425Z,1022.95
2022-10-28T04:42:38.914Z,1022.96
2022-10-28T04:43:39.408Z,1022.97
2022-10-28T04:44:39.901Z,1022.96
2022-10-28T04:45:40.395Z,1022.95
2022-10-28T04:46:40.938Z,1022.95
2022-10-28T04:47:41.431Z,1022.95
2022-10-28T04:48:41.938Z,1022.95
2022-10-28T04:49:42.432Z,1022.94
2022-10-28T04:50:42.928Z,1022.93
2022-10-28T04:51:43.555Z,1022.93
2022-10-28T04:52:44.118Z,1022.90
2022-10-28T04:53:44.631Z,1022.92
2022-10-28T04:54:45.134Z,1022.90
2022-10-28T04:55:45.662Z,1022.91
2022-10-28T04:56:46.231Z,1022.91
2022-10-28T04:57:46.726Z,1022.92
2022-10-28T04:58:47.217Z,1022.92
2022-10-28T04:59:47.714Z,1022.92
2022-10-28T05:00:48.225Z,1022.92
2022-10-28T05:01:49.015Z,1022.92
2022-10-28T05:02:49.585Z,1022.93
2022-10-28T05:03:50.081Z,1022.94
2022-10-28T05:04:50.581Z,1022.93
2022-10-28T05:05:51.070Z,1022.92
2022-10-28T05:06:51.615Z,1022.90
2022-10-28T05:07:52.484Z,1022.90
2022-10-28T05:08:52.748Z,1022.90
2022-10-28T05:09:53.245Z,1022.91
2022-10-28T05:10:54.280Z,1022.91
2022-10-28T05:11:54.880Z,1022.92
2022-10-28T05:12:55.374Z,1022.94
2022-10-28T05:13:55.867Z,1022.93
2022-10-28T05:14:56.371Z,1022.93
2022-10-28T05:15:56.874Z,1022.94
2022-10-28T05:16:57.399Z,1022.95
2022-10-28T05:17:57.894Z,1022.96
2022-10-28T05:18:58.394Z,1022.95
2022-10-28T05:19:58.886Z,1022.97
2022-10-28T05:20:59.381Z,1022.96
2022-10-28T05:21:59.904Z,1022.96
2022-10-28T05:23:00.398Z,1022.98
2022-10-28T05:24:00.902Z,1022.98
2022-10-28T05:25:01.424Z,1022.99
2022-10-28T05:26:01.946Z,1022.98
2022-10-28T05:27:02.591Z,1022.98
2022-10-28T05:28:03.086Z,1022.99
2022-10-28T05:29:03.583Z,1023.01
2022-10-28T05:30:04.091Z,1023.02
2022-10-28T05:31:04.592Z,1023.03
2022-10-28T05:33:04.654Z,1023.03
2022-10-28T05:34:06.195Z,1023.05
2022-10-28T05:35:06.693Z,1023.05
2022-10-28T05:36:07.192Z,1023.05
2022-10-28T05:37:07.723Z,1023.05
2022-10-28T05:38:08.234Z,1023.06
2022-10-28T05:39:08.733Z,1023.06
2022-10-28T05:40:09.237Z,1023.05
2022-10-28T05:41:09.756Z,1023.05
2022-10-28T05:42:10.291Z,1023.04
2022-10-28T05:43:10.783Z,1023.05
2022-10-28T05:44:11.316Z,1023.09
2022-10-28T05:45:11.821Z,1023.08
2022-10-28T05:46:12.337Z,1023.09
2022-10-28T05:47:12.879Z,1023.10
2022-10-28T05:48:13.393Z,1023.10
2022-10-28T05:49:13.900Z,1023.11
2022-10-28T05:50:14.407Z,1023.13
2022-10-28T05:51:14.905Z,1023.14
2022-10-28T05:52:15.428Z,1023.14
2022-10-28T05:53:15.924Z,1023.14
2022-10-28T05:54:16.412Z,1023.15
2022-10-28T05:55:16.907Z,1023.15
2022-10-28T05:56:17.431Z,1023.15
2022-10-28T05:57:18.100Z,1023.17
2022-10-28T05:58:18.588Z,1023.18
2022-10-28T05:59:19.087Z,1023.17
2022-10-28T06:00:19.590Z,1023.15
2022-10-28T06:01:20.194Z,1023.17
2022-10-28T06:02:20.780Z,1023.16
2022-10-28T06:03:21.328Z,1023.18
2022-10-28T06:04:21.857Z,1023.19
2022-10-28T06:05:22.362Z,1023.19
2022-10-28T06:06:22.866Z,1023.20
2022-10-28T06:07:23.392Z,1023.21
2022-10-28T06:08:23.884Z,1023.21
2022-10-28T06:09:24.390Z,1023.22
2022-10-28T06:10:24.894Z,1023.22
2022-10-28T06:11:23.891Z,1023.23
2022-10-28T06:12:24.520Z,1023.21
2022-10-28T06:13:25.042Z,1023.23
2022-10-28T06:14:25.546Z,1023.22
2022-10-28T06:15:26.050Z,1023.24
2022-10-28T06:16:26.543Z,1023.23
2022-10-28T06:17:27.077Z,1023.23
2022-10-28T06:18:27.579Z,1023.23
2022-10-28T06:19:28.079Z,1023.23
2022-10-28T06:20:28.587Z,1023.22
2022-10-28T06:21:29.080Z,1023.21
2022-10-28T06:22:29.625Z,1023.21
2022-10-28T06:23:30.128Z,1023.22
2022-10-28T06:24:30.620Z,1023.23
2022-10-28T06:25:31.115Z,1023.21
2022-10-28T06:26:31.643Z,1023.23
2022-10-28T06:27:32.222Z,1023.23
2022-10-28T06:28:32.721Z,1023.22
2022-10-28T06:29:33.218Z,1023.21
2022-10-28T06:30:33.718Z,1023.24
2022-10-28T06:31:34.209Z,1023.26
2022-10-28T06:32:34.780Z,1023.22
2022-10-28T06:33:35.297Z,1023.25
2022-10-28T06:34:35.796Z,1023.26
2022-10-28T06:35:36.309Z,1023.27
2022-10-28T06:36:36.814Z,1023.27
2022-10-28T06:37:37.371Z,1023.25
2022-10-28T06:38:37.873Z,1023.25
2022-10-28T06:39:38.502Z,1023.25
2022-10-28T06:40:39.102Z,1023.24
2022-10-28T06:41:39.644Z,1023.26
2022-10-28T06:42:40.284Z,1023.26
2022-10-28T06:43:40.783Z,1023.27
2022-10-28T06:44:41.288Z,1023.28
2022-10-28T06:45:41.796Z,1023.29
2022-10-28T06:46:43.811Z,1023.29
2022-10-28T06:47:44.332Z,1023.27
2022-10-28T06:48:44.832Z,1023.27
2022-10-28T06:49:45.335Z,1023.28
2022-10-28T06:50:45.831Z,1023.28
2022-10-28T06:51:46.347Z,1023.28
2022-10-28T06:52:46.902Z,1023.26
2022-10-28T06:53:47.408Z,1023.27
2022-10-28T06:54:47.910Z,1023.27
2022-10-28T06:55:48.413Z,1023.28
2022-10-28T06:56:48.930Z,1023.25
2022-10-28T06:57:49.568Z,1023.25
2022-10-28T06:58:50.068Z,1023.25
2022-10-28T06:59:50.569Z,1023.26
2022-10-28T07:00:51.064Z,1023.26
2022-10-28T07:01:51.676Z,1023.29
2022-10-28T07:02:52.338Z,1023.26
2022-10-28T07:03:52.914Z,1023.27
2022-10-28T07:04:53.409Z,1023.25
2022-10-28T07:05:53.911Z,1023.25
2022-10-28T07:06:54.412Z,1023.24
2022-10-28T07:07:55.302Z,1023.24
2022-10-28T07:08:55.770Z,1023.25
2022-10-28T07:09:56.269Z,1023.28
2022-10-28T07:10:56.765Z,1023.28
2022-10-28T07:12:00.862Z,1023.30
2022-10-28T07:12:58.507Z,1023.29
2022-10-28T07:13:59.062Z,1023.29
2022-10-28T07:14:59.554Z,1023.26
2022-10-28T07:16:00.050Z,1023.27
2022-10-28T07:17:00.551Z,1023.27
2022-10-28T07:18:01.095Z,1023.27
2022-10-28T07:19:01.595Z,1023.28
2022-10-28T07:20:02.091Z,1023.25
2022-10-28T07:21:02.594Z,1023.23
2022-10-28T07:22:03.117Z,1023.27
2022-10-28T07:23:03.645Z,1023.25
2022-10-28T07:24:04.142Z,1023.26
2022-10-28T07:25:04.647Z,1023.26
2022-10-28T07:26:05.152Z,1023.23
2022-10-28T07:27:05.716Z,1023.21
2022-10-28T07:28:06.312Z,1023.19
2022-10-28T07:29:06.802Z,1023.19
2022-10-28T07:30:07.310Z,1023.20
2022-10-28T07:31:07.861Z,1023.20
2022-10-28T07:32:08.420Z,1023.20
2022-10-28T07:33:09.004Z,1023.22
2022-10-28T07:34:09.517Z,1023.21
2022-10-28T07:35:10.020Z,1023.21
2022-10-28T07:36:10.521Z,1023.21
2022-10-28T07:37:11.023Z,1023.20
2022-10-28T07:38:11.558Z,1023.22
2022-10-28T07:39:12.060Z,1023.21
2022-10-28T07:40:12.610Z,1023.21
2022-10-28T07:41:13.107Z,1023.21
2022-10-28T07:42:13.627Z,1023.22
2022-10-28T07:43:14.176Z,1023.23
2022-10-28T07:44:14.706Z,1023.23
2022-10-28T07:45:15.205Z,1023.21
2022-10-28T07:46:15.702Z,1023.20
2022-10-28T07:47:16.227Z,1023.21
2022-10-28T07:48:16.764Z,1023.20
2022-10-28T07:49:17.264Z,1023.20
2022-10-28T07:50:17.764Z,1023.19
2022-10-28T07:51:18.270Z,1023.22
2022-10-28T07:52:18.778Z,1023.20
2022-10-28T07:53:20.342Z,1023.23
2022-10-28T07:54:20.303Z,1023.20
2022-10-28T07:55:20.805Z,1023.19
2022-10-28T07:56:21.304Z,1023.19
2022-10-28T07:57:21.822Z,1023.20
2022-10-28T07:58:22.471Z,1023.24
2022-10-28T07:59:26.554Z,1023.22
2022-10-28T08:00:23.518Z,1023.20
2022-10-28T08:01:24.135Z,1023.19
2022-10-28T08:02:24.694Z,1023.20
2022-10-28T08:03:34.494Z,1023.19
2022-10-28T08:04:26.075Z,1023.18
2022-10-28T08:05:26.566Z,1023.17
2022-10-28T08:06:27.064Z,1023.18
2022-10-28T08:07:27.566Z,1023.20
2022-10-28T08:08:28.141Z,1023.19
2022-10-28T08:09:28.648Z,1023.20
2022-10-28T08:10:29.147Z,1023.21
2022-10-28T08:11:29.647Z,1023.19
2022-10-28T08:12:30.165Z,1023.20
2022-10-28T08:13:30.739Z,1023.18
2022-10-28T08:14:31.255Z,1023.18
2022-10-28T08:15:31.743Z,1023.18
2022-10-28T08:16:32.249Z,1023.19
2022-10-28T08:17:32.763Z,1023.19
2022-10-28T08:18:33.282Z,1023.19
2022-10-28T08:19:33.780Z,1023.20
2022-10-28T08:20:34.274Z,1023.20
2022-10-28T08:21:34.770Z,1023.21
2022-10-28T08:22:35.281Z,1023.19
2022-10-28T08:23:35.832Z,1023.21
2022-10-28T08:24:36.373Z,1023.20
2022-10-28T08:25:36.881Z,1023.22
2022-10-28T08:26:37.384Z,1023.21
2022-10-28T08:27:37.906Z,1023.22
2022-10-28T08:28:38.507Z,1023.22
2022-10-28T08:29:39.002Z,1023.20
2022-10-28T08:30:56.648Z,1023.19
2022-10-28T08:31:40.353Z,1023.17
2022-10-28T08:32:40.849Z,1023.16
2022-10-28T08:33:41.421Z,1023.15
2022-10-28T08:34:43.642Z,1023.14
2022-10-28T08:35:42.889Z,1023.17
2022-10-28T08:36:43.433Z,1023.15
2022-10-28T08:37:43.997Z,1023.15
2022-10-28T08:38:45.795Z,1023.15
2022-10-28T08:39:45.471Z,1023.13
2022-10-28T08:40:45.985Z,1023.13
2022-10-28T08:41:46.494Z,1023.12
2022-10-28T08:42:47.023Z,1023.10
2022-10-28T08:43:57.345Z,1023.10
2022-10-28T08:44:48.432Z,1023.10
2022-10-28T08:45:48.937Z,1023.10
2022-10-28T08:46:49.427Z,1023.08
2022-10-28T08:47:49.998Z,1023.07
2022-10-28T08:48:50.625Z,1023.07
2022-10-28T08:49:51.144Z,1023.05
2022-10-28T08:50:51.648Z,1023.05
2022-10-28T08:51:52.152Z,1023.04
2022-10-28T08:52:53.023Z,1023.02
2022-10-28T08:53:53.230Z,1022.99
2022-10-28T08:54:53.725Z,1023.00
2022-10-28T08:55:54.220Z,1022.97
2022-10-28T08:56:54.722Z,1022.95
2022-10-28T08:57:55.247Z,1022.95
2022-10-28T08:58:55.799Z,1022.97
2022-10-28T08:59:56.296Z,1022.98
2022-10-28T09:00:56.906Z,1022.97
2022-10-28T09:01:57.443Z,1022.98
2022-10-28T09:02:58.178Z,1022.97
2022-10-28T09:03:59.257Z,1022.99
2022-10-28T09:04:59.276Z,1022.98
2022-10-28T09:05:59.780Z,1022.95
2022-10-28T09:07:00.350Z,1022.94
2022-10-28T09:08:00.858Z,1022.98
2022-10-28T09:09:01.390Z,1022.93
2022-10-28T09:10:01.890Z,1022.97
2022-10-28T09:11:02.406Z,1022.92
2022-10-28T09:12:02.907Z,1022.95
2022-10-28T09:13:03.425Z,1022.94
2022-10-28T09:14:04.031Z,1022.94
2022-10-28T09:15:04.532Z,1022.94
2022-10-28T09:16:05.026Z,1022.95
2022-10-28T09:17:05.527Z,1022.92
2022-10-28T09:18:06.047Z,1022.90
2022-10-28T09:19:06.584Z,1022.91
2022-10-28T09:20:07.083Z,1022.94
2022-10-28T09:21:07.578Z,1022.93
2022-10-28T09:22:08.082Z,1022.93
2022-10-28T09:23:08.590Z,1022.89
2022-10-28T09:24:09.137Z,1022.86
2022-10-28T09:25:09.633Z,1022.86
2022-10-28T09:26:10.133Z,1022.85
2022-10-28T09:27:10.630Z,1022.84
2022-10-28T09:28:11.149Z,1022.83
2022-10-28T09:29:11.765Z,1022.82
2022-10-28T09:30:12.269Z,1022.81
2022-10-28T09:31:12.779Z,1022.81
2022-10-28T09:32:13.274Z,1022.84
2022-10-28T09:33:13.779Z,1022.85
2022-10-28T09:34:14.366Z,1022.86
2022-10-28T09:35:14.866Z,1022.88
2022-10-28T09:36:15.368Z,1022.86
2022-10-28T09:37:15.861Z,1022.83
2022-10-28T09:38:16.360Z,1022.81
2022-10-28T09:39:16.904Z,1022.84
2022-10-28T09:40:17.435Z,1022.80
2022-10-28T09:41:17.956Z,1022.77
2022-10-28T09:42:18.453Z,1022.79
2022-10-28T09:43:18.991Z,1022.82
2022-10-28T09:44:19.557Z,1022.79
2022-10-28T09:45:20.055Z,1022.80
2022-10-28T09:46:20.561Z,1022.77
2022-10-28T09:47:21.063Z,1022.74
2022-10-28T09:48:21.561Z,1022.72
2022-10-28T09:49:22.094Z,1022.69
2022-10-28T09:50:22.606Z,1022.67
2022-10-28T09:51:23.107Z,1022.64
2022-10-28T09:52:23.615Z,1022.64
2022-10-28T09:53:24.124Z,1022.62
2022-10-28T09:54:24.653Z,1022.60
2022-10-28T09:55:25.147Z,1022.60
2022-10-28T09:56:25.670Z,1022.60
2022-10-28T09:57:26.190Z,1022.63
2022-10-28T09:58:26.732Z,1022.68
2022-10-28T09:59:27.341Z,1022.62
2022-10-28T10:00:27.850Z,1022.66
2022-10-28T10:01:28.415Z,1022.63
2022-10-28T10:02:29.046Z,1022.62
2022-10-28T10:03:29.681Z,1022.58
2022-10-28T10:04:30.212Z,1022.59
2022-10-28T10:05:30.722Z,1022.63
2022-10-28T10:06:31.716Z,1022.60
2022-10-28T10:07:32.252Z,1022.63
2022-10-28T10:08:32.767Z,1022.65
2022-10-28T10:09:33.297Z,1022.68
2022-10-28T10:10:33.792Z,1022.62
2022-10-28T10:11:34.297Z,1022.60
2022-10-28T10:12:34.823Z,1022.56
2022-10-28T10:13:35.353Z,1022.59
2022-10-28T10:14:35.934Z,1022.61
2022-10-28T10:15:36.446Z,1022.61
2022-10-28T10:16:36.937Z,1022.59
2022-10-28T10:17:37.449Z,1022.55
2022-10-28T10:18:37.950Z,1022.52
2022-10-28T10:19:38.499Z,1022.50
2022-10-28T10:20:38.998Z,1022.47
2022-10-28T10:21:39.500Z,1022.46
2022-10-28T10:22:40.026Z,1022.44
2022-10-28T10:24:40.059Z,1022.45
2022-10-28T10:25:41.563Z,1022.45
2022-10-28T10:26:42.080Z,1022.43
2022-10-28T10:27:42.585Z,1022.40
2022-10-28T10:28:43.116Z,1022.39
2022-10-28T10:29:43.744Z,1022.36
2022-10-28T10:30:44.267Z,1022.33
2022-10-28T10:31:44.770Z,1022.31
2022-10-28T10:32:45.279Z,1022.32
2022-10-28T10:33:45.779Z,1022.31
2022-10-28T10:34:46.385Z,1022.29
2022-10-28T10:35:46.896Z,1022.33
2022-10-28T10:36:47.391Z,1022.36
2022-10-28T10:37:47.906Z,1022.38
2022-10-28T10:38:48.403Z,1022.41
2022-10-28T10:39:48.930Z,1022.43
2022-10-28T10:40:49.434Z,1022.43
2022-10-28T10:41:49.936Z,1022.46
2022-10-28T10:43:03.514Z,1022.39
2022-10-28T10:43:51.307Z,1022.36
2022-10-28T10:44:51.842Z,1022.38
2022-10-28T10:45:52.340Z,1022.37
2022-10-28T10:46:52.838Z,1022.38
2022-10-28T10:47:53.725Z,1022.38
2022-10-28T10:48:53.963Z,1022.39
2022-10-28T10:49:54.562Z,1022.38
2022-10-28T10:50:55.060Z,1022.38
2022-10-28T10:51:55.569Z,1022.37
2022-10-28T10:52:56.479Z,1022.34
2022-10-28T10:53:56.968Z,1022.34
2022-10-28T10:54:57.498Z,1022.34
2022-10-28T10:55:57.994Z,1022.33
2022-10-28T10:57:58.004Z,1022.31
2022-10-28T10:58:59.548Z,1022.32
2022-10-28T11:00:00.249Z,1022.30
2022-10-28T11:01:00.750Z,1022.28
2022-10-28T11:02:01.938Z,1022.26
2022-10-28T11:03:02.609Z,1022.24
2022-10-28T11:04:03.166Z,1022.26
2022-10-28T11:05:03.700Z,1022.22
2022-10-28T11:06:23.609Z,1022.23
2022-10-28T11:07:05.056Z,1022.23
2022-10-28T11:08:05.552Z,1022.23
2022-10-28T11:09:06.151Z,1022.24
2022-10-28T11:10:06.798Z,1022.24
2022-10-28T11:11:07.305Z,1022.24
2022-10-28T11:12:07.806Z,1022.25
2022-10-28T11:13:08.304Z,1022.26
2022-10-28T11:14:08.928Z,1022.26
2022-10-28T11:15:09.556Z,1022.26
2022-10-28T11:16:10.054Z,1022.25
2022-10-28T11:17:10.575Z,1022.24
2022-10-28T11:18:11.088Z,1022.27
2022-10-28T11:19:11.596Z,1022.25
2022-10-28T11:20:12.145Z,1022.28
2022-10-28T11:21:12.731Z,1022.25
2022-10-28T11:22:13.265Z,1022.27
2022-10-28T11:23:13.772Z,1022.29
2022-10-28T11:24:14.277Z,1022.27
2022-10-28T11:25:14.810Z,1022.25
2022-10-28T11:26:15.311Z,1022.25
2022-10-28T11:27:15.818Z,1022.27
2022-10-28T11:28:16.322Z,1022.26
2022-10-28T11:29:16.858Z,1022.25
2022-10-28T11:30:17.412Z,1022.25
2022-10-28T11:31:17.922Z,1022.24
2022-10-28T11:32:18.435Z,1022.27
2022-10-28T11:33:32.765Z,1022.25
2022-10-28T11:34:19.795Z,1022.24
2022-10-28T11:35:20.374Z,1022.23
2022-10-28T11:36:20.879Z,1022.23
2022-10-28T11:37:21.379Z,1022.21
2022-10-28T11:38:21.888Z,1022.19
2022-10-28T11:39:22.385Z,1022.18
2022-10-28T11:40:22.908Z,1022.20
2022-10-28T11:41:23.410Z,1022.20
2022-10-28T11:42:23.907Z,1022.17
2022-10-28T11:43:24.409Z,1022.17
2022-10-28T11:44:24.942Z,1022.13
2022-10-28T11:45:25.499Z,1022.12
2022-10-28T11:46:26.001Z,1022.12
2022-10-28T11:47:26.509Z,1022.13
2022-10-28T11:48:27.110Z,1022.15
2022-10-28T11:49:27.607Z,1022.14
2022-10-28T11:50:28.154Z,1022.12
2022-10-28T11:51:28.659Z,1022.12
2022-10-28T11:52:29.159Z,1022.10
2022-10-28T11:53:29.661Z,1022.07
2022-10-28T11:54:30.166Z,1022.10
2022-10-28T11:55:30.721Z,1022.09
2022-10-28T11:56:31.243Z,1022.08
2022-10-28T11:57:31.760Z,1022.10
2022-10-28T11:58:32.268Z,1022.08
2022-10-28T11:59:32.796Z,1022.07
2022-10-28T12:00:33.425Z,1022.08
2022-10-28T12:01:34.141Z,1022.03
2022-10-28T12:02:34.863Z,1022.02
2022-10-28T12:03:35.429Z,1021.98
2022-10-28T12:04:35.944Z,1021.99
2022-10-28T12:05:36.606Z,1021.98
2022-10-28T12:06:37.107Z,1021.99
2022-10-28T12:07:37.597Z,1021.96
2022-10-28T12:08:38.107Z,1021.98
2022-10-28T12:09:38.612Z,1021.97
2022-10-28T12:10:39.653Z,1021.99
2022-10-28T12:11:39.663Z,1021.92
2022-10-28T12:12:41.384Z,1021.90
2022-10-28T12:13:41.073Z,1021.96
2022-10-28T12:14:41.612Z,1021.90
2022-10-28T12:15:42.191Z,1021.90